sensor_id;sensor_type;location;lat;lon;timestamp;pressure;altitude;pressure_sealevel;temperature;humidity
2875;BME280;1445;52.600;13.328;2024-01-25T00:01:28;78106.53;;;-145.99;100.00
2875;BME280;1445;52.600;13.328;2024-01-25T00:03:53;78159.06;;;-145.99;100.00
2875;BME280;1445;52.600;13.328;2024-01-25T00:06:18;78121.25;;;-145.99;100.00
2875;BME280;1445;52.600;13.328;2024-01-25T00:08:45;78129.63;;;-145.99;100.00
2875;BME280;1445;52.600;13.328;2024-01-25T00:11:10;78119.13;;;-145.99;100.00
2875;BME280;1445;52.600;13.328;2024-01-25T00:13:35;78131.75;;;-145.99;100.00
2875;BME280;1445;52.600;13.328;2024-01-25T00:16:03;78144.34;;;-145.99;100.00
2875;BME280;1445;52.600;13.328;2024-01-25T00:18:29;78159.06;;;-145.99;100.00
2875;BME280;1445;52.600;13.328;2024-01-25T00:20:55;78142.25;;;-145.99;100.00
2875;BME280;1445;52.600;13.328;2024-01-25T00:23:20;78146.44;;;-145.99;100.00
2875;BME280;1445;52.600;13.328;2024-01-25T00:25:45;78165.34;;;-145.99;100.00
2875;BME280;1445;52.600;13.328;2024-01-25T00:28:10;78173.75;;;-145.99;100.00
2875;BME280;1445;52.600;13.328;2024-01-25T00:30:38;78165.34;;;-145.99;100.00
2875;BME280;1445;52.600;13.328;2024-01-25T00:33:03;78182.16;;;-145.99;100.00
2875;BME280;1445;52.600;13.328;2024-01-25T00:35:29;78198.97;;;-145.99;100.00
2875;BME280;1445;52.600;13.328;2024-01-25T00:37:54;78180.06;;;-145.99;100.00
2875;BME280;1445;52.600;13.328;2024-01-25T00:40:19;78180.06;;;-145.99;100.00
2875;BME280;1445;52.600;13.328;2024-01-25T00:42:46;78188.47;;;-145.99;100.00
2875;BME280;1445;52.600;13.328;2024-01-25T00:45:18;78182.16;;;-145.99;100.00
2875;BME280;1445;52.600;13.328;2024-01-25T00:47:44;78192.66;;;-145.99;100.00
2875;BME280;1445;52.600;13.328;2024-01-25T00:50:09;78182.16;;;-145.99;100.00
2875;BME280;1445;52.600;13.328;2024-01-25T00:52:34;78190.56;;;-145.99;100.00
2875;BME280;1445;52.600;13.328;2024-01-25T00:55:01;78194.75;;;-145.99;100.00
2875;BME280;1445;52.600;13.328;2024-01-25T00:57:26;78247.28;;;-145.99;100.00
2875;BME280;1445;52.600;13.328;2024-01-25T00:59:51;78209.47;;;-145.99;100.00
2875;BME280;1445;52.600;13.328;2024-01-25T01:02:17;78215.78;;;-145.99;100.00
2875;BME280;1445;52.600;13.328;2024-01-25T01:04:42;78228.38;;;-145.99;100.00
2875;BME280;1445;52.600;13.328;2024-01-25T01:07:10;78232.56;;;-145.99;100.00
2875;BME280;1445;52.600;13.328;2024-01-25T01:09:35;78238.88;;;-145.99;100.00
2875;BME280;1445;52.600;13.328;2024-01-25T01:12:01;78224.16;;;-145.99;100.00
2875;BME280;1445;52.600;13.328;2024-01-25T01:14:26;78230.47;;;-145.99;100.00
2875;BME280;1445;52.600;13.328;2024-01-25T01:16:51;78232.56;;;-145.99;100.00
2875;BME280;1445;52.600;13.328;2024-01-25T01:19:17;78226.28;;;-145.99;100.00
2875;BME280;1445;52.600;13.328;2024-01-25T01:21:42;78226.28;;;-145.99;100.00
2875;BME280;1445;52.600;13.328;2024-01-25T01:24:12;78240.97;;;-145.99;100.00
2875;BME280;1445;52.600;13.328;2024-01-25T01:26:38;78222.06;;;-145.99;100.00
2875;BME280;1445;52.600;13.328;2024-01-25T01:29:03;78224.16;;;-145.99;100.00
2875;BME280;1445;52.600;13.328;2024-01-25T01:31:28;78238.88;;;-145.99;100.00
2875;BME280;1445;52.600;13.328;2024-01-25T01:33:54;78236.78;;;-145.99;100.00
2875;BME280;1445;52.600;13.328;2024-01-25T01:36:19;78240.97;;;-145.99;100.00
2875;BME280;1445;52.600;13.328;2024-01-25T01:38:45;78243.06;;;-145.99;100.00
2875;BME280;1445;52.600;13.328;2024-01-25T01:41:10;78243.06;;;-145.99;100.00
2875;BME280;1445;52.600;13.328;2024-01-25T01:43:38;78245.19;;;-145.99;100.00
2875;BME280;1445;52.600;13.328;2024-01-25T01:46:04;78245.19;;;-145.99;100.00
2875;BME280;1445;52.600;13.328;2024-01-25T01:48:32;78238.88;;;-145.99;100.00
2875;BME280;1445;52.600;13.328;2024-01-25T01:50:57;78232.56;;;-145.99;100.00
2875;BME280;1445;52.600;13.328;2024-01-25T01:53:23;78245.19;;;-145.99;100.00
2875;BME280;1445;52.600;13.328;2024-01-25T01:55:48;78253.59;;;-145.99;100.00
2875;BME280;1445;52.600;13.328;2024-01-25T01:58:14;78234.69;;;-145.99;100.00
2875;BME280;1445;52.600;13.328;2024-01-25T02:00:39;78240.97;;;-145.99;100.00
2875;BME280;1445;52.600;13.328;2024-01-25T02:03:07;78264.09;;;-145.99;100.00
2875;BME280;1445;52.600;13.328;2024-01-25T02:05:33;78261.97;;;-145.99;100.00
2875;BME280;1445;52.600;13.328;2024-01-25T02:07:58;78249.38;;;-145.99;100.00
2875;BME280;1445;52.600;13.328;2024-01-25T02:10:23;78264.09;;;-145.99;100.00
2875;BME280;1445;52.600;13.328;2024-01-25T02:12:49;78251.47;;;-145.99;100.00
2875;BME280;1445;52.600;13.328;2024-01-25T02:15:14;78293.50;;;-145.99;100.00
2875;BME280;1445;52.600;13.328;2024-01-25T02:17:40;78266.19;;;-145.99;100.00
2875;BME280;1445;52.600;13.328;2024-01-25T02:20:05;78272.47;;;-145.99;100.00
2875;BME280;1445;52.600;13.328;2024-01-25T02:22:31;78272.47;;;-145.99;100.00
2875;BME280;1445;52.600;13.328;2024-01-25T02:24:56;78274.59;;;-145.99;100.00
2875;BME280;1445;52.600;13.328;2024-01-25T02:27:22;78276.69;;;-145.99;100.00
2875;BME280;1445;52.600;13.328;2024-01-25T02:29:47;78287.19;;;-145.99;100.00
2875;BME280;1445;52.600;13.328;2024-01-25T02:32:12;78291.41;;;-145.99;100.00
2875;BME280;1445;52.600;13.328;2024-01-25T02:34:38;78287.19;;;-145.99;100.00
2875;BME280;1445;52.600;13.328;2024-01-25T02:37:03;78287.19;;;-145.99;100.00
2875;BME280;1445;52.600;13.328;2024-01-25T02:39:28;78278.78;;;-145.99;100.00
2875;BME280;1445;52.600;13.328;2024-01-25T02:41:53;78304.00;;;-145.99;100.00
2875;BME280;1445;52.600;13.328;2024-01-25T02:44:19;78293.50;;;-145.99;100.00
2875;BME280;1445;52.600;13.328;2024-01-25T02:46:44;78278.78;;;-145.99;100.00
2875;BME280;1445;52.600;13.328;2024-01-25T02:49:10;78272.47;;;-145.99;100.00
2875;BME280;1445;52.600;13.328;2024-01-25T02:51:35;78306.09;;;-145.99;100.00
2875;BME280;1445;52.600;13.328;2024-01-25T02:54:00;78283.00;;;-145.99;100.00
2875;BME280;1445;52.600;13.328;2024-01-25T02:56:26;78283.00;;;-145.99;100.00
2875;BME280;1445;52.600;13.328;2024-01-25T02:58:51;78295.59;;;-145.99;100.00
2875;BME280;1445;52.600;13.328;2024-01-25T03:01:16;78274.59;;;-145.99;100.00
2875;BME280;1445;52.600;13.328;2024-01-25T03:03:42;78274.59;;;-145.99;100.00
2875;BME280;1445;52.600;13.328;2024-01-25T03:06:07;78272.47;;;-145.99;100.00
2875;BME280;1445;52.600;13.328;2024-01-25T03:08:34;78283.00;;;-145.99;100.00
2875;BME280;1445;52.600;13.328;2024-01-25T03:10:59;78274.59;;;-145.99;100.00
2875;BME280;1445;52.600;13.328;2024-01-25T03:13:25;78295.59;;;-145.99;100.00
2875;BME280;1445;52.600;13.328;2024-01-25T03:15:50;78283.00;;;-145.99;100.00
2875;BME280;1445;52.600;13.328;2024-01-25T03:18:15;78293.50;;;-145.99;100.00
2875;BME280;1445;52.600;13.328;2024-01-25T03:20:41;78287.19;;;-145.99;100.00
2875;BME280;1445;52.600;13.328;2024-01-25T03:23:06;78295.59;;;-145.99;100.00
2875;BME280;1445;52.600;13.328;2024-01-25T03:25:31;78291.41;;;-145.99;100.00
2875;BME280;1445;52.600;13.328;2024-01-25T03:27:57;78295.59;;;-145.99;100.00
2875;BME280;1445;52.600;13.328;2024-01-25T03:30:22;78295.59;;;-145.99;100.00
2875;BME280;1445;52.600;13.328;2024-01-25T03:32:47;78293.50;;;-145.99;100.00
2875;BME280;1445;52.600;13.328;2024-01-25T03:35:13;78299.78;;;-145.99;100.00
2875;BME280;1445;52.600;13.328;2024-01-25T03:37:38;78312.41;;;-145.99;100.00
2875;BME280;1445;52.600;13.328;2024-01-25T03:40:04;78295.59;;;-145.99;100.00
2875;BME280;1445;52.600;13.328;2024-01-25T03:42:30;78306.09;;;-145.99;100.00
2875;BME280;1445;52.600;13.328;2024-01-25T03:44:55;78299.78;;;-145.99;100.00
2875;BME280;1445;52.600;13.328;2024-01-25T03:47:20;78312.41;;;-145.99;100.00
2875;BME280;1445;52.600;13.328;2024-01-25T03:49:45;78304.00;;;-145.99;100.00
2875;BME280;1445;52.600;13.328;2024-01-25T03:52:11;78314.50;;;-145.99;100.00
2875;BME280;1445;52.600;13.328;2024-01-25T03:54:36;78331.31;;;-145.99;100.00
2875;BME280;1445;52.600;13.328;2024-01-25T03:57:02;78352.31;;;-145.99;100.00
2875;BME280;1445;52.600;13.328;2024-01-25T03:59:28;78308.19;;;-145.99;100.00
2875;BME280;1445;52.600;13.328;2024-01-25T04:01:53;78333.41;;;-145.99;100.00
2875;BME280;1445;52.600;13.328;2024-01-25T04:04:18;78329.22;;;-145.99;100.00
2875;BME280;1445;52.600;13.328;2024-01-25T04:06:44;78360.72;;;-145.99;100.00
2875;BME280;1445;52.600;13.328;2024-01-25T04:09:12;78346.00;;;-145.99;100.00
2875;BME280;1445;52.600;13.328;2024-01-25T04:11:38;78339.72;;;-145.99;100.00
2875;BME280;1445;52.600;13.328;2024-01-25T04:14:04;78337.59;;;-145.99;100.00
2875;BME280;1445;52.600;13.328;2024-01-25T04:16:29;78354.41;;;-145.99;100.00
2875;BME280;1445;52.600;13.328;2024-01-25T04:18:55;78358.63;;;-145.99;100.00
2875;BME280;1445;52.600;13.328;2024-01-25T04:21:20;78383.81;;;-145.99;100.00
2875;BME280;1445;52.600;13.328;2024-01-25T04:23:46;78369.13;;;-145.99;100.00
2875;BME280;1445;52.600;13.328;2024-01-25T04:26:11;78385.94;;;-145.99;100.00
2875;BME280;1445;52.600;13.328;2024-01-25T04:28:36;78360.72;;;-145.99;100.00
2875;BME280;1445;52.600;13.328;2024-01-25T04:31:02;78379.63;;;-145.99;100.00
2875;BME280;1445;52.600;13.328;2024-01-25T04:33:28;78377.53;;;-145.99;100.00
2875;BME280;1445;52.600;13.328;2024-01-25T04:35:53;78371.22;;;-145.99;100.00
2875;BME280;1445;52.600;13.328;2024-01-25T04:38:18;78377.53;;;-145.99;100.00
2875;BME280;1445;52.600;13.328;2024-01-25T04:40:44;78379.63;;;-145.99;100.00
2875;BME280;1445;52.600;13.328;2024-01-25T04:43:09;78381.72;;;-145.99;100.00
2875;BME280;1445;52.600;13.328;2024-01-25T04:45:36;78394.34;;;-145.99;100.00
2875;BME280;1445;52.600;13.328;2024-01-25T04:48:02;78388.03;;;-145.99;100.00
2875;BME280;1445;52.600;13.328;2024-01-25T04:50:27;78436.34;;;-145.99;100.00
2875;BME280;1445;52.600;13.328;2024-01-25T04:52:52;78383.81;;;-145.99;100.00
2875;BME280;1445;52.600;13.328;2024-01-25T04:55:18;78379.63;;;-145.99;100.00
2875;BME280;1445;52.600;13.328;2024-01-25T04:57:45;78406.94;;;-145.99;100.00
2875;BME280;1445;52.600;13.328;2024-01-25T05:00:10;78417.44;;;-145.99;100.00
2875;BME280;1445;52.600;13.328;2024-01-25T05:02:36;78394.34;;;-145.99;100.00
2875;BME280;1445;52.600;13.328;2024-01-25T05:05:01;78409.03;;;-145.99;100.00
2875;BME280;1445;52.600;13.328;2024-01-25T05:07:26;78396.44;;;-145.99;100.00
2875;BME280;1445;52.600;13.328;2024-01-25T05:09:52;78413.25;;;-145.99;100.00
2875;BME280;1445;52.600;13.328;2024-01-25T05:12:17;78417.44;;;-145.99;100.00
2875;BME280;1445;52.600;13.328;2024-01-25T05:14:42;78409.03;;;-145.99;100.00
2875;BME280;1445;52.600;13.328;2024-01-25T05:17:07;78400.63;;;-145.99;100.00
2875;BME280;1445;52.600;13.328;2024-01-25T05:19:33;78402.72;;;-145.99;100.00
2875;BME280;1445;52.600;13.328;2024-01-25T05:21:58;78415.34;;;-145.99;100.00
2875;BME280;1445;52.600;13.328;2024-01-25T05:24:23;78417.44;;;-145.99;100.00
2875;BME280;1445;52.600;13.328;2024-01-25T05:26:49;78438.44;;;-145.99;100.00
2875;BME280;1445;52.600;13.328;2024-01-25T05:29:14;78430.03;;;-145.99;100.00
2875;BME280;1445;52.600;13.328;2024-01-25T05:31:40;78436.34;;;-145.99;100.00
2875;BME280;1445;52.600;13.328;2024-01-25T05:34:09;78436.34;;;-145.99;100.00
2875;BME280;1445;52.600;13.328;2024-01-25T05:36:34;78430.03;;;-145.99;100.00
2875;BME280;1445;52.600;13.328;2024-01-25T05:38:59;78434.25;;;-145.99;100.00
2875;BME280;1445;52.600;13.328;2024-01-25T05:41:24;78461.56;;;-145.99;100.00
2875;BME280;1445;52.600;13.328;2024-01-25T05:43:50;78438.44;;;-145.99;100.00
2875;BME280;1445;52.600;13.328;2024-01-25T05:46:15;78446.84;;;-145.99;100.00
2875;BME280;1445;52.600;13.328;2024-01-25T05:48:40;78415.34;;;-145.99;100.00
2875;BME280;1445;52.600;13.328;2024-01-25T05:51:06;78423.75;;;-145.99;100.00
2875;BME280;1445;52.600;13.328;2024-01-25T05:53:31;78409.03;;;-145.99;100.00
2875;BME280;1445;52.600;13.328;2024-01-25T05:55:57;78423.75;;;-145.99;100.00
2875;BME280;1445;52.600;13.328;2024-01-25T05:58:22;78432.16;;;-145.99;100.00
2875;BME280;1445;52.600;13.328;2024-01-25T06:00:48;78459.47;;;-145.99;100.00
2875;BME280;1445;52.600;13.328;2024-01-25T06:03:13;78440.56;;;-145.99;100.00
2875;BME280;1445;52.600;13.328;2024-01-25T06:05:38;78444.75;;;-145.99;100.00
2875;BME280;1445;52.600;13.328;2024-01-25T06:08:03;78459.47;;;-145.99;100.00
2875;BME280;1445;52.600;13.328;2024-01-25T06:10:29;78459.47;;;-145.99;100.00
2875;BME280;1445;52.600;13.328;2024-01-25T06:12:54;78478.38;;;-145.99;100.00
2875;BME280;1445;52.600;13.328;2024-01-25T06:15:19;78469.97;;;-145.99;100.00
2875;BME280;1445;52.600;13.328;2024-01-25T06:17:45;78476.25;;;-145.99;100.00
2875;BME280;1445;52.600;13.328;2024-01-25T06:20:10;78476.25;;;-145.99;100.00
2875;BME280;1445;52.600;13.328;2024-01-25T06:22:36;78463.66;;;-145.99;100.00
2875;BME280;1445;52.600;13.328;2024-01-25T06:25:01;78497.28;;;-145.99;100.00
2875;BME280;1445;52.600;13.328;2024-01-25T06:27:29;78472.06;;;-145.99;100.00
2875;BME280;1445;52.600;13.328;2024-01-25T06:29:54;78474.16;;;-145.99;100.00
2875;BME280;1445;52.600;13.328;2024-01-25T06:32:19;78472.06;;;-145.99;100.00
2875;BME280;1445;52.600;13.328;2024-01-25T06:34:45;78459.47;;;-145.99;100.00
2875;BME280;1445;52.600;13.328;2024-01-25T06:37:10;78480.47;;;-145.99;100.00
2875;BME280;1445;52.600;13.328;2024-01-25T06:39:37;78490.97;;;-145.99;100.00
2875;BME280;1445;52.600;13.328;2024-01-25T06:42:02;78484.66;;;-145.99;100.00
2875;BME280;1445;52.600;13.328;2024-01-25T06:44:27;78499.38;;;-145.99;100.00
2875;BME280;1445;52.600;13.328;2024-01-25T06:46:53;78482.56;;;-145.99;100.00
2875;BME280;1445;52.600;13.328;2024-01-25T06:49:18;78495.16;;;-145.99;100.00
2875;BME280;1445;52.600;13.328;2024-01-25T06:51:43;78503.56;;;-145.99;100.00
2875;BME280;1445;52.600;13.328;2024-01-25T06:54:08;78509.88;;;-145.99;100.00
2875;BME280;1445;52.600;13.328;2024-01-25T06:56:34;78509.88;;;-145.99;100.00
2875;BME280;1445;52.600;13.328;2024-01-25T06:58:59;78518.28;;;-145.99;100.00
2875;BME280;1445;52.600;13.328;2024-01-25T07:01:25;78537.19;;;-145.99;100.00
2875;BME280;1445;52.600;13.328;2024-01-25T07:03:51;78520.38;;;-145.99;100.00
2875;BME280;1445;52.600;13.328;2024-01-25T07:06:17;78518.28;;;-145.99;100.00
2875;BME280;1445;52.600;13.328;2024-01-25T07:08:43;78520.38;;;-145.99;100.00
2875;BME280;1445;52.600;13.328;2024-01-25T07:11:08;78526.69;;;-145.99;100.00
2875;BME280;1445;52.600;13.328;2024-01-25T07:13:33;78547.69;;;-145.99;100.00
2875;BME280;1445;52.600;13.328;2024-01-25T07:15:59;78543.50;;;-145.99;100.00
2875;BME280;1445;52.600;13.328;2024-01-25T07:18:24;78547.69;;;-145.99;100.00
2875;BME280;1445;52.600;13.328;2024-01-25T07:20:49;78539.28;;;-145.99;100.00
2875;BME280;1445;52.600;13.328;2024-01-25T07:23:14;78551.91;;;-145.99;100.00
2875;BME280;1445;52.600;13.328;2024-01-25T07:25:40;78543.50;;;-145.99;100.00
2875;BME280;1445;52.600;13.328;2024-01-25T07:28:05;78556.09;;;-145.99;100.00
2875;BME280;1445;52.600;13.328;2024-01-25T07:30:30;78558.19;;;-145.99;100.00
2875;BME280;1445;52.600;13.328;2024-01-25T07:32:56;78564.50;;;-145.99;100.00
2875;BME280;1445;52.600;13.328;2024-01-25T07:35:21;78596.00;;;-145.99;100.00
2875;BME280;1445;52.600;13.328;2024-01-25T07:37:48;78568.69;;;-145.99;100.00
2875;BME280;1445;52.600;13.328;2024-01-25T07:40:13;78570.81;;;-145.99;100.00
2875;BME280;1445;52.600;13.328;2024-01-25T07:42:38;78579.22;;;-145.99;100.00
2875;BME280;1445;52.600;13.328;2024-01-25T07:45:04;78572.91;;;-145.99;100.00
2875;BME280;1445;52.600;13.328;2024-01-25T07:47:30;78591.81;;;-145.99;100.00
2875;BME280;1445;52.600;13.328;2024-01-25T07:49:55;78587.63;;;-145.99;100.00
2875;BME280;1445;52.600;13.328;2024-01-25T07:52:20;78581.31;;;-145.99;100.00
2875;BME280;1445;52.600;13.328;2024-01-25T07:54:45;78602.31;;;-145.99;100.00
2875;BME280;1445;52.600;13.328;2024-01-25T07:57:11;78591.81;;;-145.99;100.00
2875;BME280;1445;52.600;13.328;2024-01-25T07:59:36;78593.91;;;-145.99;100.00
2875;BME280;1445;52.600;13.328;2024-01-25T08:02:01;78598.13;;;-145.99;100.00
2875;BME280;1445;52.600;13.328;2024-01-25T08:04:27;78610.72;;;-145.99;100.00
2875;BME280;1445;52.600;13.328;2024-01-25T08:06:52;78604.41;;;-145.99;100.00
2875;BME280;1445;52.600;13.328;2024-01-25T08:09:17;78598.13;;;-145.99;100.00
2875;BME280;1445;52.600;13.328;2024-01-25T08:11:43;78600.22;;;-145.99;100.00
2875;BME280;1445;52.600;13.328;2024-01-25T08:14:08;78617.03;;;-145.99;100.00
2875;BME280;1445;52.600;13.328;2024-01-25T08:16:34;78610.72;;;-145.99;100.00
2875;BME280;1445;52.600;13.328;2024-01-25T08:19:00;78621.22;;;-145.99;100.00
2875;BME280;1445;52.600;13.328;2024-01-25T08:21:25;78619.13;;;-145.99;100.00
2875;BME280;1445;52.600;13.328;2024-01-25T08:23:51;78617.03;;;-145.99;100.00
2875;BME280;1445;52.600;13.328;2024-01-25T08:26:16;78623.31;;;-145.99;100.00
2875;BME280;1445;52.600;13.328;2024-01-25T08:28:42;78623.31;;;-145.99;100.00
2875;BME280;1445;52.600;13.328;2024-01-25T08:31:10;78625.44;;;-145.99;100.00
2875;BME280;1445;52.600;13.328;2024-01-25T08:33:36;78648.53;;;-145.99;100.00
2875;BME280;1445;52.600;13.328;2024-01-25T08:36:01;78644.34;;;-145.99;100.00
2875;BME280;1445;52.600;13.328;2024-01-25T08:38:27;78627.53;;;-145.99;100.00
2875;BME280;1445;52.600;13.328;2024-01-25T08:40:52;78659.03;;;-145.99;100.00
2875;BME280;1445;52.600;13.328;2024-01-25T08:43:17;78654.84;;;-145.99;100.00
2875;BME280;1445;52.600;13.328;2024-01-25T08:45:43;78640.13;;;-145.99;100.00
2875;BME280;1445;52.600;13.328;2024-01-25T08:48:08;78669.56;;;-145.99;100.00
2875;BME280;1445;52.600;13.328;2024-01-25T08:50:34;78659.03;;;-145.99;100.00
2875;BME280;1445;52.600;13.328;2024-01-25T08:52:59;78644.34;;;-145.99;100.00
2875;BME280;1445;52.600;13.328;2024-01-25T08:55:25;78652.75;;;-145.99;100.00
2875;BME280;1445;52.600;13.328;2024-01-25T08:57:50;78646.44;;;-145.99;100.00
2875;BME280;1445;52.600;13.328;2024-01-25T09:00:15;78642.22;;;-145.99;100.00
2875;BME280;1445;52.600;13.328;2024-01-25T09:02:41;78665.34;;;-145.99;100.00
2875;BME280;1445;52.600;13.328;2024-01-25T09:05:07;78671.66;;;-145.99;100.00
2875;BME280;1445;52.600;13.328;2024-01-25T09:07:33;78652.75;;;-145.99;100.00
2875;BME280;1445;52.600;13.328;2024-01-25T09:09:59;78671.66;;;-145.99;100.00
2875;BME280;1445;52.600;13.328;2024-01-25T09:12:24;78680.06;;;-145.99;100.00
2875;BME280;1445;52.600;13.328;2024-01-25T09:14:49;78671.66;;;-145.99;100.00
2875;BME280;1445;52.600;13.328;2024-01-25T09:17:15;78680.06;;;-145.99;100.00
2875;BME280;1445;52.600;13.328;2024-01-25T09:19:46;78675.84;;;-145.99;100.00
2875;BME280;1445;52.600;13.328;2024-01-25T09:22:11;78692.66;;;-145.99;100.00
2875;BME280;1445;52.600;13.328;2024-01-25T09:24:37;78680.06;;;-145.99;100.00
2875;BME280;1445;52.600;13.328;2024-01-25T09:27:04;78694.75;;;-145.99;100.00
2875;BME280;1445;52.600;13.328;2024-01-25T09:29:30;78698.97;;;-145.99;100.00
2875;BME280;1445;52.600;13.328;2024-01-25T09:31:55;78684.25;;;-145.99;100.00
2875;BME280;1445;52.600;13.328;2024-01-25T09:34:20;78684.25;;;-145.99;100.00
2875;BME280;1445;52.600;13.328;2024-01-25T09:36:46;78671.66;;;-145.99;100.00
2875;BME280;1445;52.600;13.328;2024-01-25T09:39:11;78684.25;;;-145.99;100.00
2875;BME280;1445;52.600;13.328;2024-01-25T09:41:37;78680.06;;;-145.99;100.00
2875;BME280;1445;52.600;13.328;2024-01-25T09:44:03;78713.66;;;-145.99;100.00
2875;BME280;1445;52.600;13.328;2024-01-25T09:46:28;78696.88;;;-145.99;100.00
2875;BME280;1445;52.600;13.328;2024-01-25T09:48:53;78686.34;;;-145.99;100.00
2875;BME280;1445;52.600;13.328;2024-01-25T09:51:19;78701.06;;;-145.99;100.00
2875;BME280;1445;52.600;13.328;2024-01-25T09:53:44;78707.38;;;-145.99;100.00
2875;BME280;1445;52.600;13.328;2024-01-25T09:56:11;78713.66;;;-145.99;100.00
2875;BME280;1445;52.600;13.328;2024-01-25T09:58:41;78694.75;;;-145.99;100.00
2875;BME280;1445;52.600;13.328;2024-01-25T10:01:10;78692.66;;;-145.99;100.00
2875;BME280;1445;52.600;13.328;2024-01-25T10:03:36;78726.28;;;-145.99;100.00
2875;BME280;1445;52.600;13.328;2024-01-25T10:06:01;78703.16;;;-145.99;100.00
2875;BME280;1445;52.600;13.328;2024-01-25T10:08:26;78701.06;;;-145.99;100.00
2875;BME280;1445;52.600;13.328;2024-01-25T10:10:52;78707.38;;;-145.99;100.00
2875;BME280;1445;52.600;13.328;2024-01-25T10:13:20;78715.78;;;-145.99;100.00
2875;BME280;1445;52.600;13.328;2024-01-25T10:15:45;78715.78;;;-145.99;100.00
2875;BME280;1445;52.600;13.328;2024-01-25T10:18:12;78724.19;;;-145.99;100.00
2875;BME280;1445;52.600;13.328;2024-01-25T10:20:38;78711.56;;;-145.99;100.00
2875;BME280;1445;52.600;13.328;2024-01-25T10:23:04;78719.97;;;-145.99;100.00
2875;BME280;1445;52.600;13.328;2024-01-25T10:25:29;78711.56;;;-145.99;100.00
2875;BME280;1445;52.600;13.328;2024-01-25T10:27:54;78705.28;;;-145.99;100.00
2875;BME280;1445;52.600;13.328;2024-01-25T10:30:20;78686.34;;;-145.99;100.00
2875;BME280;1445;52.600;13.328;2024-01-25T10:32:45;78696.88;;;-145.99;100.00
2875;BME280;1445;52.600;13.328;2024-01-25T10:35:11;78703.16;;;-145.99;100.00
2875;BME280;1445;52.600;13.328;2024-01-25T10:37:37;78711.56;;;-145.99;100.00
2875;BME280;1445;52.600;13.328;2024-01-25T10:40:04;78709.47;;;-145.99;100.00
2875;BME280;1445;52.600;13.328;2024-01-25T10:42:29;78713.66;;;-145.99;100.00
2875;BME280;1445;52.600;13.328;2024-01-25T10:44:55;78698.97;;;-145.99;100.00
2875;BME280;1445;52.600;13.328;2024-01-25T10:47:20;78694.75;;;-145.99;100.00
2875;BME280;1445;52.600;13.328;2024-01-25T10:49:46;78709.47;;;-145.99;100.00
2875;BME280;1445;52.600;13.328;2024-01-25T10:52:12;78677.94;;;-145.99;100.00
2875;BME280;1445;52.600;13.328;2024-01-25T10:54:37;78694.75;;;-145.99;100.00
2875;BME280;1445;52.600;13.328;2024-01-25T10:57:04;78690.56;;;-145.99;100.00
2875;BME280;1445;52.600;13.328;2024-01-25T10:59:30;78673.75;;;-145.99;100.00
2875;BME280;1445;52.600;13.328;2024-01-25T11:01:55;78688.47;;;-145.99;100.00
2875;BME280;1445;52.600;13.328;2024-01-25T11:04:21;78694.75;;;-145.99;100.00
2875;BME280;1445;52.600;13.328;2024-01-25T11:06:47;78698.97;;;-145.99;100.00
2875;BME280;1445;52.600;13.328;2024-01-25T11:09:16;78686.34;;;-145.99;100.00
2875;BME280;1445;52.600;13.328;2024-01-25T11:11:44;78701.06;;;-145.99;100.00
2875;BME280;1445;52.600;13.328;2024-01-25T11:14:13;78684.25;;;-145.99;100.00
2875;BME280;1445;52.600;13.328;2024-01-25T11:16:39;78696.88;;;-145.99;100.00
2875;BME280;1445;52.600;13.328;2024-01-25T11:19:07;78684.25;;;-145.99;100.00
2875;BME280;1445;52.600;13.328;2024-01-25T11:21:42;78682.16;;;-145.99;100.00
2875;BME280;1445;52.600;13.328;2024-01-25T11:26:42;78663.25;;;-145.99;100.00
2875;BME280;1445;52.600;13.328;2024-01-25T11:29:08;78654.84;;;-145.99;100.00
2875;BME280;1445;52.600;13.328;2024-01-25T11:31:33;78654.84;;;-145.99;100.00
2875;BME280;1445;52.600;13.328;2024-01-25T11:33:59;78663.25;;;-145.99;100.00
2875;BME280;1445;52.600;13.328;2024-01-25T11:36:25;78659.03;;;-145.99;100.00
2875;BME280;1445;52.600;13.328;2024-01-25T11:38:50;78661.16;;;-145.99;100.00
2875;BME280;1445;52.600;13.328;2024-01-25T11:41:16;78614.94;;;-145.99;100.00
2875;BME280;1445;52.600;13.328;2024-01-25T11:43:41;78633.84;;;-145.99;100.00
2875;BME280;1445;52.600;13.328;2024-01-25T11:46:06;78648.53;;;-145.99;100.00
2875;BME280;1445;52.600;13.328;2024-01-25T11:48:32;78640.13;;;-145.99;100.00
2875;BME280;1445;52.600;13.328;2024-01-25T11:51:00;78633.84;;;-145.99;100.00
2875;BME280;1445;52.600;13.328;2024-01-25T11:53:25;78621.22;;;-145.99;100.00
2875;BME280;1445;52.600;13.328;2024-01-25T11:55:51;78644.34;;;-145.99;100.00
2875;BME280;1445;52.600;13.328;2024-01-25T11:58:16;78642.22;;;-145.99;100.00
2875;BME280;1445;52.600;13.328;2024-01-25T12:00:42;78640.13;;;-145.99;100.00
2875;BME280;1445;52.600;13.328;2024-01-25T12:03:07;78659.03;;;-145.99;100.00
2875;BME280;1445;52.600;13.328;2024-01-25T12:05:33;78646.44;;;-145.99;100.00
2875;BME280;1445;52.600;13.328;2024-01-25T12:07:58;78625.44;;;-145.99;100.00
2875;BME280;1445;52.600;13.328;2024-01-25T12:10:24;78631.72;;;-145.99;100.00
2875;BME280;1445;52.600;13.328;2024-01-25T12:12:50;78648.53;;;-145.99;100.00
2875;BME280;1445;52.600;13.328;2024-01-25T12:15:16;78648.53;;;-145.99;100.00
2875;BME280;1445;52.600;13.328;2024-01-25T12:17:41;78635.94;;;-145.99;100.00
2875;BME280;1445;52.600;13.328;2024-01-25T12:20:06;78654.84;;;-145.99;100.00
2875;BME280;1445;52.600;13.328;2024-01-25T12:22:38;78654.84;;;-145.99;100.00
2875;BME280;1445;52.600;13.328;2024-01-25T12:25:06;78629.63;;;-145.99;100.00
2875;BME280;1445;52.600;13.328;2024-01-25T12:27:33;78638.03;;;-145.99;100.00
2875;BME280;1445;52.600;13.328;2024-01-25T12:29:58;78629.63;;;-145.99;100.00
2875;BME280;1445;52.600;13.328;2024-01-25T12:32:23;78646.44;;;-145.99;100.00
2875;BME280;1445;52.600;13.328;2024-01-25T12:34:52;78633.84;;;-145.99;100.00